Time;durP1;ratioP1;P1;durP2;ratioP2;P2;SDS_P1;SDS_P2;PMS_P1;PMS_P2;Temp;Humidity;BMP_temperature;BMP_pressure;BME280_temperature;BME280_humidity;BME280_pressure;Samples;Min_cycle;Max_cycle;Signal;HPM_P1;HPM_P2
2023/08/25 00:01:17;;;;;;;1.15;0.70;;;;;;;14.60;71.29;101201.78;5045971;28;20099;-79
2023/08/25 00:03:44;;;;;;;1.00;0.57;;;;;;;14.58;71.26;101199.19;5034937;28;20045;-79
2023/08/25 00:06:11;;;;;;;1.52;0.75;;;;;;;14.56;71.29;101198.34;5038994;28;20052;-79
2023/08/25 00:08:38;;;;;;;0.93;0.77;;;;;;;14.48;71.34;101194.19;5035860;28;20048;-79
2023/08/25 00:11:07;;;;;;;3.45;0.50;;;;;;;14.52;71.38;101198.50;5040841;28;20045;-79
2023/08/25 00:13:35;;;;;;;1.60;0.60;;;;;;;14.50;71.31;101198.50;5014325;28;20037;-79
2023/08/25 00:16:04;;;;;;;1.23;0.60;;;;;;;14.48;71.39;101197.66;5037044;28;20046;-79
2023/08/25 00:18:30;;;;;;;1.65;0.60;;;;;;;14.46;71.34;101194.25;5041543;28;20048;-79
2023/08/25 00:20:57;;;;;;;1.45;0.60;;;;;;;14.36;71.24;101184.88;5050944;28;20049;-79
2023/08/25 00:23:24;;;;;;;3.05;0.60;;;;;;;14.44;71.33;101192.56;5045689;28;20044;-79
2023/08/25 00:25:53;;;;;;;2.45;0.50;;;;;;;14.39;71.13;101190.03;5036799;28;20060;-79
2023/08/25 00:28:21;;;;;;;3.90;0.60;;;;;;;14.39;71.37;101196.16;5045884;28;20583;-78
2023/08/25 00:30:49;;;;;;;2.92;0.70;;;;;;;14.32;71.17;101186.72;5033024;28;20052;-76
2023/08/25 00:33:16;;;;;;;0.68;0.60;;;;;;;14.36;71.23;101204.13;5030962;28;20040;-76
2023/08/25 00:35:43;;;;;;;1.73;0.68;;;;;;;14.33;71.53;101203.34;5033930;28;20052;-75
2023/08/25 00:38:10;;;;;;;3.30;0.77;;;;;;;14.32;71.26;101210.38;5033658;28;20558;-76
2023/08/25 00:40:37;;;;;;;2.20;0.60;;;;;;;14.31;71.50;101208.63;5027581;28;20045;-76
2023/08/25 00:43:04;;;;;;;1.92;1.23;;;;;;;14.30;71.47;101211.31;5035569;28;20047;-74
2023/08/25 00:45:37;;;;;;;3.20;0.70;;;;;;;14.28;71.39;101219.22;5030015;28;20044;-76
2023/08/25 00:48:05;;;;;;;0.88;0.60;;;;;;;14.27;71.60;101219.28;5055093;28;20045;-74
2023/08/25 00:50:33;;;;;;;0.93;0.60;;;;;;;14.24;71.38;101228.13;5053543;28;20041;-76
2023/08/25 00:53:01;;;;;;;4.10;0.73;;;;;;;14.24;71.62;101232.50;5051375;28;20081;-75
2023/08/25 00:55:29;;;;;;;2.50;0.90;;;;;;;14.18;71.51;101226.50;5049597;28;20144;-76
2023/08/25 00:57:57;;;;;;;4.57;1.13;;;;;;;13.97;71.45;101197.31;5052617;28;20045;-76
2023/08/25 01:00:26;;;;;;;2.22;0.98;;;;;;;14.18;71.68;101234.41;5054198;28;20582;-76
2023/08/25 01:02:55;;;;;;;3.70;0.90;;;;;;;14.17;71.81;101245.81;5058673;28;20494;-76
2023/08/25 01:05:22;;;;;;;4.45;0.75;;;;;;;14.11;71.89;101238.06;5053148;28;20060;-76
2023/08/25 01:07:49;;;;;;;2.28;0.82;;;;;;;14.09;71.93;101239.91;5053937;28;20049;-76
2023/08/25 01:10:17;;;;;;;1.45;0.73;;;;;;;14.08;71.99;101242.53;5050855;28;20049;-76
2023/08/25 01:12:56;;;;;;;2.88;0.80;;;;;;;14.15;72.06;101254.63;5050761;28;20404;-76
2023/08/25 01:15:29;;;;;;;8.60;0.80;;;;;;;14.07;72.09;101235.56;5053827;28;20048;-76
2023/08/25 01:18:03;;;;;;;2.88;1.08;;;;;;;14.12;72.33;101255.56;5051477;28;20102;-76
2023/08/25 01:20:32;;;;;;;3.67;0.70;;;;;;;14.12;72.25;101245.06;5051208;28;20103;-77
2023/08/25 01:23:09;;;;;;;2.40;0.82;;;;;;;14.12;72.25;101250.31;5052249;28;20055;-76
2023/08/25 01:25:38;;;;;;;1.95;1.00;;;;;;;14.11;72.35;101242.47;5052301;28;20056;-76
2023/08/25 01:28:06;;;;;;;1.90;0.68;;;;;;;14.08;72.40;101227.63;5053133;28;20044;-77
2023/08/25 01:30:35;;;;;;;2.13;0.80;;;;;;;14.08;72.47;101239.91;5051287;28;20041;-80
2023/08/25 01:33:03;;;;;;;3.33;1.10;;;;;;;14.06;72.42;101231.22;5057807;28;20052;-79
2023/08/25 01:35:40;;;;;;;3.00;0.93;;;;;;;14.02;72.43;101226.94;5058060;28;20095;-78
2023/08/25 01:38:11;;;;;;;0.90;0.70;;;;;;;14.06;72.52;101237.34;5055744;28;20049;-78
2023/08/25 01:40:45;;;;;;;3.17;0.73;;;;;;;14.07;72.54;101227.69;5055743;28;20083;-76
2023/08/25 01:43:17;;;;;;;2.37;0.90;;;;;;;14.06;72.49;101239.09;5053374;28;20049;-76
2023/08/25 01:45:46;;;;;;;2.03;1.05;;;;;;;14.05;72.46;101237.38;5056697;28;20110;-76
2023/08/25 01:48:15;;;;;;;3.22;0.60;;;;;;;14.04;72.65;101231.25;5049899;28;20049;-76
2023/08/25 01:50:43;;;;;;;1.58;0.73;;;;;;;14.04;72.62;101236.50;5054317;28;20126;-76
2023/08/25 01:53:11;;;;;;;1.55;0.75;;;;;;;14.02;72.65;101233.06;5049501;28;20056;-76
2023/08/25 01:55:39;;;;;;;2.55;1.08;;;;;;;13.99;72.45;101232.28;5053457;28;20037;-76
2023/08/25 01:58:06;;;;;;;4.57;2.03;;;;;;;14.02;72.64;101238.31;5051962;28;20041;-77
2023/08/25 02:00:33;;;;;;;1.02;0.95;;;;;;;14.00;72.70;101229.59;5051449;28;20045;-76
2023/08/25 02:03:00;;;;;;;1.23;0.68;;;;;;;14.00;72.50;101232.22;5054336;28;20064;-78
2023/08/25 02:05:27;;;;;;;3.42;0.82;;;;;;;14.00;72.52;101236.63;5053040;28;20048;-75
2023/08/25 02:07:54;;;;;;;2.75;0.90;;;;;;;13.97;72.64;101224.44;5047500;28;20462;-76
2023/08/25 02:10:21;;;;;;;3.92;1.10;;;;;;;13.94;72.54;101224.50;5052874;28;20049;-75
2023/08/25 02:12:49;;;;;;;2.28;0.73;;;;;;;13.97;72.60;101219.16;5035993;28;20059;-76
2023/08/25 02:15:16;;;;;;;0.93;0.85;;;;;;;13.95;72.74;101215.75;5052321;28;20049;-76
2023/08/25 02:17:43;;;;;;;1.65;0.65;;;;;;;13.93;72.61;101221.03;5049145;28;20407;-76
2023/08/25 02:20:12;;;;;;;1.38;0.80;;;;;;;13.93;72.64;101217.53;5055216;28;20044;-76
2023/08/25 02:22:39;;;;;;;1.58;1.10;;;;;;;13.91;72.59;101220.19;5047333;28;20648;-75
2023/08/25 02:25:07;;;;;;;2.97;1.50;;;;;;;13.87;72.51;101217.69;5054153;28;20067;-76
2023/08/25 02:27:33;;;;;;;4.47;0.95;;;;;;;13.89;72.63;101218.53;5055292;28;20060;-76
2023/08/25 02:30:03;;;;;;;1.30;0.90;;;;;;;13.88;72.41;101215.00;5049686;28;20041;-75
2023/08/25 02:32:29;;;;;;;1.98;0.93;;;;;;;13.87;72.66;101215.06;5049253;28;20049;-76
2023/08/25 02:34:56;;;;;;;2.78;0.85;;;;;;;13.86;72.68;101215.94;5052680;28;20047;-76
2023/08/25 02:37:23;;;;;;;2.33;0.60;;;;;;;13.85;72.63;101217.72;5050886;28;20049;-79
2023/08/25 02:39:50;;;;;;;8.38;2.25;;;;;;;13.82;72.66;101211.69;5041092;28;20752;-76
2023/08/25 02:42:17;;;;;;;1.70;0.82;;;;;;;13.82;72.60;101214.31;5058650;28;20049;-79
2023/08/25 02:44:44;;;;;;;3.92;0.60;;;;;;;13.59;72.42;101178.13;5047737;28;20055;-79
2023/08/25 02:47:12;;;;;;;8.00;1.65;;;;;;;13.78;72.59;101212.69;5056397;28;20041;-78
2023/08/25 02:49:39;;;;;;;1.77;0.95;;;;;;;13.78;72.77;101208.28;5051398;28;20045;-78
2023/08/25 02:52:07;;;;;;;4.82;0.88;;;;;;;13.77;72.72;101206.53;5054823;28;20044;-80
2023/08/25 02:54:34;;;;;;;4.53;0.80;;;;;;;13.76;72.84;101201.34;5054495;28;20041;-80
2023/08/25 02:57:01;;;;;;;3.22;0.88;;;;;;;13.76;72.98;101214.47;5053922;28;20718;-80
2023/08/25 02:59:28;;;;;;;5.38;0.77;;;;;;;13.75;72.85;101212.75;5059653;28;20082;-80
2023/08/25 03:01:55;;;;;;;3.53;0.68;;;;;;;13.73;72.87;101195.25;5055054;28;20037;-80
2023/08/25 03:04:23;;;;;;;3.22;0.90;;;;;;;13.74;72.84;101198.75;5056091;28;20115;-80
2023/08/25 03:06:50;;;;;;;2.20;0.70;;;;;;;13.72;73.00;101196.19;5056632;28;20048;-80
2023/08/25 03:09:17;;;;;;;1.00;0.75;;;;;;;13.73;73.31;101202.28;5050819;28;21284;-80
2023/08/25 03:11:44;;;;;;;2.90;0.82;;;;;;;13.72;73.20;101203.19;5052218;28;20041;-80
2023/08/25 03:14:11;;;;;;;1.45;0.90;;;;;;;13.71;73.30;101196.19;5051068;28;20048;-80
2023/08/25 03:16:38;;;;;;;4.25;0.98;;;;;;;13.71;73.08;101193.56;5065736;28;20044;-79
2023/08/25 03:19:05;;;;;;;1.23;0.80;;;;;;;13.69;73.12;101198.88;5057851;28;20052;-79
2023/08/25 03:21:33;;;;;;;1.20;0.90;;;;;;;13.69;73.21;101192.78;5065915;28;20045;-80
2023/08/25 03:24:00;;;;;;;3.65;1.30;;;;;;;13.66;73.02;101188.47;5055351;28;20045;-80
2023/08/25 03:26:28;;;;;;;1.70;0.80;;;;;;;13.66;73.18;101191.06;5063010;28;20487;-79
2023/08/25 03:28:55;;;;;;;1.88;0.90;;;;;;;13.67;73.18;101194.56;5058948;28;20483;-80
2023/08/25 03:31:22;;;;;;;2.03;0.80;;;;;;;13.63;73.19;101191.16;5049028;28;20059;-79
2023/08/25 03:33:49;;;;;;;3.47;1.30;;;;;;;13.63;73.17;101192.91;5053939;28;20128;-79
2023/08/25 03:36:16;;;;;;;2.97;0.65;;;;;;;13.62;73.23;101196.44;5063623;28;20579;-79
2023/08/25 03:38:44;;;;;;;1.52;0.88;;;;;;;13.58;73.21;101190.41;5064671;28;20072;-80
2023/08/25 03:41:11;;;;;;;4.10;1.00;;;;;;;13.63;73.30;101198.16;5067719;28;20048;-80
2023/08/25 03:43:38;;;;;;;2.45;0.82;;;;;;;13.61;73.32;101195.56;5059951;28;20065;-80
2023/08/25 03:46:05;;;;;;;0.90;0.80;;;;;;;13.59;73.30;101192.13;5066873;28;20059;-79
2023/08/25 03:48:32;;;;;;;4.70;0.65;;;;;;;13.57;73.26;101193.91;5062570;28;20048;-80
2023/08/25 03:50:58;;;;;;;2.00;1.10;;;;;;;13.60;73.51;101195.59;5053195;28;20045;-75
2023/08/25 03:53:25;;;;;;;1.52;1.05;;;;;;;13.59;73.50;101194.75;5059052;28;20518;-75
2023/08/25 03:55:54;;;;;;;1.55;1.15;;;;;;;13.56;73.47;101188.72;5054629;28;20048;-76
2023/08/25 03:58:22;;;;;;;6.28;0.85;;;;;;;13.59;73.71;101193.88;5053454;28;20049;-75
2023/08/25 04:00:53;;;;;;;2.88;1.15;;;;;;;13.57;73.73;101188.66;5052669;28;20628;-80
2023/08/25 04:03:20;;;;;;;1.30;1.10;;;;;;;13.53;73.78;101183.53;5054759;28;20053;-79
2023/08/25 04:05:47;;;;;;;3.30;0.77;;;;;;;13.59;73.88;101204.38;5064818;28;20045;-79
2023/08/25 04:08:13;;;;;;;3.30;1.38;;;;;;;13.59;73.98;101201.75;5060518;28;20067;-79
2023/08/25 04:10:41;;;;;;;3.03;0.70;;;;;;;13.59;74.31;101202.63;5053550;28;20052;-79
2023/08/25 04:13:10;;;;;;;1.35;1.10;;;;;;;13.53;74.35;101189.63;5057581;28;20045;-80
2023/08/25 04:15:37;;;;;;;1.33;0.95;;;;;;;13.61;74.55;101200.81;5056009;28;20119;-79
2023/08/25 04:18:05;;;;;;;3.60;1.08;;;;;;;13.62;74.51;101202.53;5060284;28;20048;-79
2023/08/25 04:20:33;;;;;;;2.13;1.08;;;;;;;13.63;74.75;101206.91;5060338;28;20090;-80
2023/08/25 04:23:01;;;;;;;3.97;0.95;;;;;;;13.65;75.02;101198.97;5058900;28;20041;-80
2023/08/25 04:25:29;;;;;;;1.77;1.00;;;;;;;13.67;74.57;101202.44;5052043;28;20076;-80
2023/08/25 04:27:57;;;;;;;2.38;1.10;;;;;;;13.68;75.32;101191.88;5064035;28;20048;-80
2023/08/25 04:30:25;;;;;;;3.00;1.00;;;;;;;13.64;75.56;101185.00;5059994;28;20044;-80
2023/08/25 04:32:53;;;;;;;2.42;0.77;;;;;;;13.71;75.51;101196.19;5059244;28;20044;-80
2023/08/25 04:35:20;;;;;;;2.97;1.30;;;;;;;13.73;75.89;101200.50;5059134;28;20071;-80
2023/08/25 04:37:48;;;;;;;3.05;1.95;;;;;;;13.79;76.16;101201.25;5052873;28;20518;-80
2023/08/25 04:40:15;;;;;;;2.95;1.08;;;;;;;13.82;76.42;101209.06;5062981;28;20075;-77
2023/08/25 04:42:43;;;;;;;3.15;1.13;;;;;;;13.86;76.76;101210.69;5056366;28;20712;-77
2023/08/25 04:45:11;;;;;;;2.22;1.05;;;;;;;13.88;76.92;101207.13;5057043;28;20070;-77
2023/08/25 04:47:40;;;;;;;2.67;1.42;;;;;;;13.92;77.18;101208.81;5054228;28;20415;-77
2023/08/25 04:50:09;;;;;;;4.35;1.60;;;;;;;13.97;77.13;101206.03;5051414;28;20051;-76
2023/08/25 04:52:36;;;;;;;8.02;2.33;;;;;;;13.93;77.26;101189.50;5058358;28;20147;-75
2023/08/25 04:55:04;;;;;;;3.22;1.27;;;;;;;14.05;77.32;101201.44;5057176;28;20052;-75
2023/08/25 04:57:31;;;;;;;3.60;1.23;;;;;;;14.08;77.37;101198.75;5047736;28;20123;-75
2023/08/25 04:59:58;;;;;;;3.05;1.70;;;;;;;14.12;77.39;101197.78;5054318;28;20044;-75
2023/08/25 05:02:25;;;;;;;2.70;1.00;;;;;;;14.11;77.60;101193.41;5053746;28;20557;-75
2023/08/25 05:04:53;;;;;;;2.53;1.20;;;;;;;14.21;77.71;101190.56;5051180;28;20040;-74
2023/08/25 05:07:20;;;;;;;4.63;1.20;;;;;;;14.24;77.83;101196.59;5055809;28;20055;-74
2023/08/25 05:09:47;;;;;;;3.53;1.38;;;;;;;14.32;77.96;101196.38;5051908;28;20068;-73
2023/08/25 05:12:14;;;;;;;4.32;1.40;;;;;;;14.33;77.96;101190.22;5051858;28;20561;-77
2023/08/25 05:14:41;;;;;;;4.60;1.30;;;;;;;14.39;78.02;101196.16;5052330;28;20495;-80
2023/08/25 05:17:07;;;;;;;2.28;1.23;;;;;;;14.44;78.16;101203.94;5057276;28;20040;-81
2023/08/25 05:19:34;;;;;;;2.92;1.73;;;;;;;14.46;78.53;101194.25;5064044;28;20495;-81
2023/08/25 05:22:03;;;;;;;3.45;1.90;;;;;;;14.50;78.72;101197.63;5061778;28;20398;-80
2023/08/25 05:24:30;;;;;;;2.63;1.70;;;;;;;14.48;78.92;101179.25;5052769;28;20120;-81
2023/08/25 05:26:57;;;;;;;3.22;1.65;;;;;;;14.64;79.07;101194.66;5059151;28;20456;-80
2023/08/25 05:29:28;;;;;;;3.20;1.70;;;;;;;14.68;79.04;101191.88;5061567;28;20052;-80
2023/08/25 05:31:55;;;;;;;4.80;1.73;;;;;;;14.73;78.98;101186.50;5060550;28;20127;-80
2023/08/25 05:34:22;;;;;;;2.40;1.52;;;;;;;14.77;78.77;101183.75;5059705;28;20041;-81
2023/08/25 05:36:49;;;;;;;2.50;1.80;;;;;;;14.80;79.16;101186.28;5061342;28;20049;-81
2023/08/25 05:39:19;;;;;;;2.13;1.40;;;;;;;14.87;79.05;101186.94;5053142;28;20041;-80
2023/08/25 05:41:46;;;;;;;4.93;2.20;;;;;;;14.85;79.13;101167.72;5059354;28;20398;-81
2023/08/25 05:44:13;;;;;;;2.70;1.70;;;;;;;14.96;79.11;101170.03;5059722;28;20045;-81
2023/08/25 05:46:40;;;;;;;1.55;1.27;;;;;;;15.01;79.02;101168.97;5059311;28;20051;-80
2023/08/25 05:49:07;;;;;;;6.15;1.88;;;;;;;15.04;78.89;101166.25;5064883;28;20871;-80
2023/08/25 05:51:34;;;;;;;4.55;1.92;;;;;;;15.09;78.75;101170.53;5057752;28;20055;-80
2023/08/25 05:54:01;;;;;;;5.70;1.60;;;;;;;15.14;78.93;101173.84;5059001;28;20053;-80
2023/08/25 05:56:29;;;;;;;5.45;1.88;;;;;;;15.18;79.01;101173.72;5061440;28;20036;-80
2023/08/25 05:59:00;;;;;;;3.45;1.73;;;;;;;15.21;78.76;101176.25;5057313;28;20487;-80
2023/08/25 06:01:27;;;;;;;3.92;1.60;;;;;;;15.25;78.71;101172.63;5058129;28;20048;-80
2023/08/25 06:03:54;;;;;;;3.40;1.63;;;;;;;15.21;78.76;101162.25;5056976;28;20055;-82
2023/08/25 06:06:21;;;;;;;3.05;1.60;;;;;;;15.32;78.94;101168.03;5055260;28;20058;-81
2023/08/25 06:08:48;;;;;;;3.78;1.52;;;;;;;15.34;78.75;101165.34;5060657;28;20052;-81
2023/08/25 06:11:15;;;;;;;2.80;1.80;;;;;;;15.43;78.81;101176.44;5056318;28;20051;-80
2023/08/25 06:13:43;;;;;;;3.78;1.63;;;;;;;15.46;78.53;101176.34;5061532;28;20055;-80
2023/08/25 06:16:10;;;;;;;9.07;1.38;;;;;;;15.51;78.72;101174.44;5057277;28;20041;-80
2023/08/25 06:18:37;;;;;;;5.60;2.72;;;;;;;15.56;78.67;101173.41;5053842;28;20068;-80
2023/08/25 06:21:04;;;;;;;11.10;2.58;;;;;;;15.60;78.59;101173.28;5055875;28;20049;-77
2023/08/25 06:23:31;;;;;;;4.13;1.67;;;;;;;15.65;78.53;101170.47;5056038;28;20049;-78
2023/08/25 06:26:00;;;;;;;2.15;1.23;;;;;;;15.69;78.73;101162.44;5051232;28;20155;-77
2023/08/25 06:28:27;;;;;;;3.78;1.35;;;;;;;15.73;78.57;101166.69;5054779;28;20040;-77
2023/08/25 06:30:55;;;;;;;2.17;1.65;;;;;;;15.78;78.48;101163.06;5051556;28;20045;-78
2023/08/25 06:33:22;;;;;;;3.08;1.83;;;;;;;15.83;78.49;101166.41;5055865;28;20036;-79
2023/08/25 06:35:49;;;;;;;2.22;1.67;;;;;;;15.87;78.36;101157.47;5060668;28;20055;-78
2023/08/25 06:38:16;;;;;;;4.30;2.38;;;;;;;15.92;78.41;101151.13;5056388;28;20731;-78
2023/08/25 06:40:43;;;;;;;5.03;2.92;;;;;;;15.97;78.36;101153.63;5055776;28;20045;-78
2023/08/25 06:43:11;;;;;;;3.63;1.70;;;;;;;16.02;78.00;101158.72;5057290;28;20051;-74
2023/08/25 06:45:37;;;;;;;3.67;1.17;;;;;;;16.06;78.32;101155.06;5047390;28;20522;-74
2023/08/25 06:48:06;;;;;;;4.57;1.63;;;;;;;16.11;78.22;101148.72;5053059;28;20518;-75
2023/08/25 06:50:33;;;;;;;4.55;1.52;;;;;;;16.07;78.13;101140.97;5049762;28;20041;-75
2023/08/25 06:53:00;;;;;;;2.97;1.48;;;;;;;16.20;78.29;101152.81;5054060;28;20887;-74
2023/08/25 06:55:27;;;;;;;3.13;1.73;;;;;;;16.26;78.07;101163.13;5054095;28;20045;-75
2023/08/25 06:57:54;;;;;;;2.22;1.63;;;;;;;16.30;77.94;101151.53;5054920;28;20415;-76
2023/08/25 07:00:22;;;;;;;5.22;1.67;;;;;;;16.35;78.00;101162.78;5057101;28;20195;-76
2023/08/25 07:02:49;;;;;;;3.72;1.55;;;;;;;16.40;77.82;101166.13;5054028;28;20052;-75
2023/08/25 07:05:18;;;;;;;6.10;1.85;;;;;;;16.45;77.86;101165.06;5055123;28;20485;-76
2023/08/25 07:07:45;;;;;;;1.95;1.40;;;;;;;16.49;77.56;101161.44;5058527;28;20410;-76
2023/08/25 07:10:13;;;;;;;2.50;1.75;;;;;;;16.54;77.72;101162.13;5052740;28;20044;-77
2023/08/25 07:12:40;;;;;;;6.22;1.23;;;;;;;16.57;77.88;101165.50;5055041;28;20770;-77
2023/08/25 07:15:08;;;;;;;5.55;1.67;;;;;;;16.60;77.86;101169.81;5054411;28;20136;-77
2023/08/25 07:17:35;;;;;;;4.47;1.48;;;;;;;16.64;77.86;101174.03;5060054;28;20041;-77
2023/08/25 07:20:04;;;;;;;4.03;1.67;;;;;;;16.67;77.99;101166.00;5055430;28;20486;-77
2023/08/25 07:22:32;;;;;;;4.45;1.13;;;;;;;16.70;77.71;101173.81;5056694;28;20125;-76
2023/08/25 07:24:59;;;;;;;3.50;1.20;;;;;;;16.73;77.46;101171.03;5056267;28;20045;-77
2023/08/25 07:27:26;;;;;;;1.33;1.02;;;;;;;16.74;77.36;101169.28;5060052;28;20048;-77
2023/08/25 07:29:53;;;;;;;8.43;1.63;;;;;;;16.79;77.38;101176.16;5054595;28;20047;-78
2023/08/25 07:32:21;;;;;;;5.07;0.88;;;;;;;16.81;77.22;101169.00;5029814;28;20114;-76
2023/08/25 07:34:48;;;;;;;7.47;1.13;;;;;;;16.84;77.18;101171.53;5051750;28;20044;-77
2023/08/25 07:37:15;;;;;;;3.08;1.90;;;;;;;16.88;77.02;101174.94;5053075;28;20171;-78
2023/08/25 07:39:43;;;;;;;3.75;1.20;;;;;;;16.76;77.32;101152.53;5056382;28;20060;-77
2023/08/25 07:42:10;;;;;;;4.80;1.17;;;;;;;16.93;77.23;101174.75;5061824;28;20054;-79
2023/08/25 07:44:38;;;;;;;4.18;1.27;;;;;;;16.96;77.13;101164.06;5060618;28;20094;-80
2023/08/25 07:47:05;;;;;;;4.13;1.38;;;;;;;17.01;77.01;101167.38;5054216;28;20057;-85
2023/08/25 07:49:32;;;;;;;1.67;1.13;;;;;;;17.04;76.69;101169.91;5059644;28;20047;-79
2023/08/25 07:51:59;;;;;;;3.47;1.00;;;;;;;17.02;76.74;101161.22;5056961;28;20049;-81
2023/08/25 07:54:27;;;;;;;6.43;1.77;;;;;;;17.07;76.61;101164.50;5062515;28;20047;-88
2023/08/25 07:56:55;;;;;;;3.47;1.20;;;;;;;17.11;76.85;101168.75;5061193;28;20057;-82
2023/08/25 07:59:22;;;;;;;2.20;1.13;;;;;;;17.11;76.75;101152.06;5062287;28;20052;-83
2023/08/25 08:01:50;;;;;;;1.85;1.10;;;;;;;17.08;76.78;101142.50;5059845;28;20052;-79
2023/08/25 08:04:17;;;;;;;2.15;1.25;;;;;;;17.17;76.46;101157.97;5054960;28;20037;-78
2023/08/25 08:06:44;;;;;;;2.35;1.00;;;;;;;17.19;76.56;101155.22;5058053;28;20053;-80
2023/08/25 08:09:11;;;;;;;2.67;0.82;;;;;;;17.20;76.45;101152.56;5059603;28;20071;-81
2023/08/25 08:11:38;;;;;;;1.70;1.00;;;;;;;17.11;76.53;101130.94;5055959;28;20051;-80
2023/08/25 08:14:07;;;;;;;3.42;1.50;;;;;;;17.21;76.35;101146.34;5059844;28;20045;-82
2023/08/25 08:16:34;;;;;;;1.55;1.00;;;;;;;17.24;76.52;101156.78;5053560;28;20049;-76
2023/08/25 08:19:02;;;;;;;3.65;1.20;;;;;;;17.25;76.67;101150.59;5056169;28;20051;-76
2023/08/25 08:21:29;;;;;;;4.75;1.35;;;;;;;17.26;76.65;101147.03;5053715;28;20127;-76
2023/08/25 08:23:56;;;;;;;2.53;1.10;;;;;;;17.28;76.32;101152.25;5055795;28;20045;-76
2023/08/25 08:26:23;;;;;;;2.15;1.00;;;;;;;17.29;76.53;101151.31;5055636;28;20052;-74
2023/08/25 08:28:50;;;;;;;3.17;1.08;;;;;;;17.25;76.56;101147.09;5019601;28;20048;-75
2023/08/25 08:31:19;;;;;;;2.75;1.30;;;;;;;17.31;76.44;101158.25;5050615;28;20049;-76
2023/08/25 08:33:46;;;;;;;1.98;0.98;;;;;;;17.24;76.36;101138.28;5054717;28;20056;-76
2023/08/25 08:36:15;;;;;;;4.00;1.38;;;;;;;17.35;76.20;101160.78;5055469;28;20044;-77
2023/08/25 08:38:42;;;;;;;5.10;2.33;;;;;;;17.34;76.71;101157.28;5049592;28;20051;-74
2023/08/25 08:41:10;;;;;;;3.75;1.08;;;;;;;17.35;76.84;101159.00;5051722;28;20087;-74
2023/08/25 08:43:42;;;;;;;2.20;1.05;;;;;;;17.36;76.80;101158.09;5048332;28;20041;-75
2023/08/25 08:46:14;;;;;;;2.22;1.20;;;;;;;17.38;76.71;101160.66;5050760;28;20416;-76
2023/08/25 08:48:44;;;;;;;3.28;1.85;;;;;;;17.38;76.72;101160.66;5053307;28;20044;-76
2023/08/25 08:51:13;;;;;;;3.83;1.27;;;;;;;17.38;76.74;101155.38;5051015;28;20740;-77
2023/08/25 08:53:41;;;;;;;7.40;1.38;;;;;;;17.32;76.83;101145.91;5055911;28;20059;-77
2023/08/25 08:56:08;;;;;;;4.43;1.58;;;;;;;17.39;76.52;101155.31;5046953;28;20046;-76
2023/08/25 08:58:35;;;;;;;1.10;0.93;;;;;;;17.41;76.57;101157.88;5055629;28;20053;-76
2023/08/25 09:01:04;;;;;;;2.45;0.90;;;;;;;17.40;76.82;101157.03;5056180;28;20686;-76
2023/08/25 09:03:35;;;;;;;5.00;1.65;;;;;;;17.41;76.95;101158.72;5055048;28;20052;-76
2023/08/25 09:06:04;;;;;;;2.38;1.48;;;;;;;17.43;77.22;101163.97;5054884;28;20045;-75
2023/08/25 09:08:32;;;;;;;4.32;1.88;;;;;;;17.41;77.23;101157.88;5051451;28;20045;-77
2023/08/25 09:11:03;;;;;;;6.03;1.42;;;;;;;17.45;77.02;101154.22;5053234;28;20040;-77
2023/08/25 09:13:33;;;;;;;4.05;1.00;;;;;;;17.45;77.07;101152.41;5049174;28;20462;-76
2023/08/25 09:16:01;;;;;;;1.92;1.83;;;;;;;17.48;77.25;101151.44;5053737;28;20049;-75
2023/08/25 09:18:34;;;;;;;3.00;1.52;;;;;;;17.49;77.35;101154.00;5052060;28;20045;-76
2023/08/25 09:21:04;;;;;;;3.78;1.50;;;;;;;17.51;77.53;101156.59;5049608;28;20037;-81
2023/08/25 09:23:31;;;;;;;2.70;1.70;;;;;;;17.53;77.77;101155.59;5059266;28;20044;-77
2023/08/25 09:26:04;;;;;;;2.97;1.60;;;;;;;17.56;77.58;101154.63;5054332;28;20102;-76
2023/08/25 09:28:36;;;;;;;4.50;1.35;;;;;;;17.56;77.60;101149.34;5051395;28;20052;-76
2023/08/25 09:31:03;;;;;;;4.40;1.50;;;;;;;17.58;77.80;101136.91;5047335;28;20045;-75
2023/08/25 09:33:30;;;;;;;2.95;1.33;;;;;;;17.63;77.92;101147.28;5050311;28;20045;-76
2023/08/25 09:36:05;;;;;;;6.00;1.73;;;;;;;17.67;77.85;101141.84;5055939;28;20048;-76
2023/08/25 09:38:34;;;;;;;4.40;1.88;;;;;;;17.69;77.86;101141.75;5052190;28;20772;-77
2023/08/25 09:41:01;;;;;;;2.30;1.60;;;;;;;17.63;77.84;101124.38;5056459;28;20051;-76
2023/08/25 09:43:29;;;;;;;1.92;1.10;;;;;;;17.73;77.82;101131.00;5046675;28;20048;-75
2023/08/25 09:45:56;;;;;;;3.47;1.77;;;;;;;17.75;77.91;101131.78;5056203;28;20056;-79
2023/08/25 09:48:26;;;;;;;2.85;1.42;;;;;;;17.75;78.04;101131.78;5053224;28;20059;-79
2023/08/25 09:50:53;;;;;;;4.45;1.13;;;;;;;17.77;77.46;101132.56;5051810;28;20053;-79
2023/08/25 09:53:24;;;;;;;5.57;1.20;;;;;;;17.71;77.74;101118.78;5056514;28;20056;-79
2023/08/25 09:56:01;;;;;;;1.33;0.65;;;;;;;17.80;77.92;101128.97;5053976;28;20045;-78
2023/08/25 09:58:29;;;;;;;0.95;0.93;;;;;;;17.85;77.72;101136.72;5060521;28;20041;-79
2023/08/25 10:00:58;;;;;;;6.88;1.38;;;;;;;17.76;77.60;101122.09;5060151;28;20056;-81
2023/08/25 10:03:25;;;;;;;2.22;1.23;;;;;;;17.88;77.66;101140.06;5052743;28;20060;-81
2023/08/25 10:05:53;;;;;;;2.70;1.25;;;;;;;17.86;77.31;101122.56;5059694;28;20051;-81
2023/08/25 10:08:24;;;;;;;2.65;0.90;;;;;;;17.92;77.20;101124.94;5046327;28;20051;-82
2023/08/25 10:10:51;;;;;;;3.38;0.82;;;;;;;17.97;77.30;101120.31;5058585;28;20145;-81
2023/08/25 10:13:20;;;;;;;3.25;1.10;;;;;;;17.91;77.39;101112.66;5061806;28;20052;-81
2023/08/25 10:15:49;;;;;;;2.55;1.20;;;;;;;17.94;77.21;101112.53;5050643;28;20052;-81
2023/08/25 10:18:16;;;;;;;5.53;1.55;;;;;;;18.06;77.22;101133.13;5051208;28;20514;-80
2023/08/25 10:20:44;;;;;;;5.65;1.25;;;;;;;18.06;77.01;101121.69;5053174;28;20064;-80
2023/08/25 10:23:12;;;;;;;5.30;0.80;;;;;;;18.09;77.21;101127.69;5052147;28;20049;-81
2023/08/25 10:25:40;;;;;;;1.42;1.00;;;;;;;18.11;76.85;101123.22;5060778;28;20037;-80
2023/08/25 10:28:09;;;;;;;6.78;0.82;;;;;;;18.03;76.67;101104.19;5063957;28;20056;-80
2023/08/25 10:30:37;;;;;;;2.40;0.90;;;;;;;18.19;76.61;101122.88;5060972;28;20048;-74
2023/08/25 10:33:09;;;;;;;3.65;0.90;;;;;;;18.23;76.37;101126.25;5055406;28;20045;-75
2023/08/25 10:35:40;;;;;;;2.00;1.30;;;;;;;18.28;76.23;101126.91;5054239;28;20053;-83
2023/08/25 10:38:35;;;;;;;3.75;0.85;;;;;;;18.24;76.14;101115.56;5059947;28;20045;-78
2023/08/25 10:41:18;;;;;;;2.83;0.80;;;;;;;18.35;76.39;101128.31;5054707;28;20044;-76
2023/08/25 10:43:53;;;;;;;5.55;0.80;;;;;;;18.36;75.83;101125.63;5058863;28;20080;-76
2023/08/25 10:46:21;;;;;;;2.72;0.80;;;;;;;18.38;75.79;101126.38;5061308;28;20473;-79
2023/08/25 10:48:49;;;;;;;3.25;0.60;;;;;;;18.36;75.09;101119.47;5056307;28;20097;-76
2023/08/25 10:51:20;;;;;;;0.70;0.60;;;;;;;18.39;75.00;101125.47;5060511;28;20044;-77
2023/08/25 10:53:51;;;;;;;3.85;0.50;;;;;;;18.41;74.73;101123.63;5054071;28;20055;-75
2023/08/25 10:56:25;;;;;;;0.80;0.50;;;;;;;18.43;74.68;101126.19;5055310;28;20056;-76
2023/08/25 10:59:03;;;;;;;2.47;0.60;;;;;;;18.46;74.43;101126.03;5047309;28;20495;-73
2023/08/25 11:01:54;;;;;;;1.73;0.57;;;;;;;18.50;74.24;101121.47;5055412;28;20041;-81
2023/08/25 11:04:23;;;;;;;2.17;0.60;;;;;;;18.51;74.44;101124.06;5056022;28;20098;-79
2023/08/25 11:06:50;;;;;;;3.60;0.70;;;;;;;18.55;73.93;101127.41;5057893;28;20051;-76
2023/08/25 11:09:31;;;;;;;2.15;0.50;;;;;;;18.57;73.10;101129.06;5053287;28;20053;-76
2023/08/25 11:12:03;;;;;;;3.25;0.50;;;;;;;18.56;72.60;101122.06;5049008;28;20075;-78
2023/08/25 11:14:30;;;;;;;2.65;0.50;;;;;;;18.56;72.15;101127.34;5058762;28;20095;-79
2023/08/25 11:16:57;;;;;;;1.48;0.40;;;;;;;18.52;72.13;101120.47;5059213;28;20045;-78
2023/08/25 11:19:25;;;;;;;1.45;0.50;;;;;;;18.55;71.90;101132.69;5058271;28;20048;-78
2023/08/25 11:22:00;;;;;;;1.17;0.47;;;;;;;18.55;72.14;101130.91;5054715;28;20048;-79
2023/08/25 11:24:29;;;;;;;1.85;0.50;;;;;;;18.55;71.77;101138.84;5057495;28;20047;-79
2023/08/25 11:26:55;;;;;;;2.33;0.50;;;;;;;18.56;72.07;101140.59;5054054;28;20178;-77
2023/08/25 11:29:24;;;;;;;3.15;0.50;;;;;;;18.58;71.90;101144.00;5062923;28;20044;-79